sensor_id;sensor_type;location;lat;lon;timestamp;pressure;altitude;pressure_sealevel;temperature;humidity
70909;BME280;58554;52.006;5.926;2024-01-11T00:01:08;102441.28;;;-5.34;62.47
70909;BME280;58554;52.006;5.926;2024-01-11T00:03:35;102431.91;;;-5.32;62.41
70909;BME280;58554;52.006;5.926;2024-01-11T00:06:01;102436.13;;;-5.34;62.41
70909;BME280;58554;52.006;5.926;2024-01-11T00:08:28;102428.28;;;-5.37;62.26
70909;BME280;58554;52.006;5.926;2024-01-11T00:10:54;102425.56;;;-5.41;62.57
70909;BME280;58554;52.006;5.926;2024-01-11T00:13:21;102425.44;;;-5.44;62.50
70909;BME280;58554;52.006;5.926;2024-01-11T00:15:47;102426.22;;;-5.47;62.59
70909;BME280;58554;52.006;5.926;2024-01-11T00:18:16;102424.44;;;-5.48;62.73
70909;BME280;58554;52.006;5.926;2024-01-11T00:20:43;102421.00;;;-5.49;62.79
70909;BME280;58554;52.006;5.926;2024-01-11T00:23:09;102427.75;;;-5.52;62.69
70909;BME280;58554;52.006;5.926;2024-01-11T00:25:36;102429.34;;;-5.56;62.69
70909;BME280;58554;52.006;5.926;2024-01-11T00:28:03;102434.50;;;-5.56;62.89
70909;BME280;58554;52.006;5.926;2024-01-11T00:30:30;102442.97;;;-5.58;63.03
70909;BME280;58554;52.006;5.926;2024-01-11T00:32:56;102446.41;;;-5.59;63.03
70909;BME280;58554;52.006;5.926;2024-01-11T00:35:25;102439.50;;;-5.60;62.88
70909;BME280;58554;52.006;5.926;2024-01-11T00:37:52;102449.69;;;-5.63;63.04
70909;BME280;58554;52.006;5.926;2024-01-11T00:40:18;102443.59;;;-5.65;62.98
70909;BME280;58554;52.006;5.926;2024-01-11T00:42:44;102440.91;;;-5.69;63.06
70909;BME280;58554;52.006;5.926;2024-01-11T00:45:11;102443.31;;;-5.73;63.17
70909;BME280;58554;52.006;5.926;2024-01-11T00:47:37;102437.22;;;-5.75;63.14
70909;BME280;58554;52.006;5.926;2024-01-11T00:50:05;102436.28;;;-5.77;63.26
70909;BME280;58554;52.006;5.926;2024-01-11T00:52:35;102433.69;;;-5.79;63.34
70909;BME280;58554;52.006;5.926;2024-01-11T00:55:01;102444.69;;;-5.83;63.48
70909;BME280;58554;52.006;5.926;2024-01-11T00:57:28;102443.69;;;-5.86;63.40
70909;BME280;58554;52.006;5.926;2024-01-11T00:59:55;102440.09;;;-5.90;63.58
70909;BME280;58554;52.006;5.926;2024-01-11T01:02:21;102434.84;;;-5.93;63.72
70909;BME280;58554;52.006;5.926;2024-01-11T01:04:48;102440.88;;;-5.93;63.63
70909;BME280;58554;52.006;5.926;2024-01-11T01:07:14;102436.50;;;-5.95;63.80
70909;BME280;58554;52.006;5.926;2024-01-11T01:09:43;102441.72;;;-5.94;63.87
70909;BME280;58554;52.006;5.926;2024-01-11T01:12:10;102446.81;;;-5.95;63.90
70909;BME280;58554;52.006;5.926;2024-01-11T01:14:36;102447.56;;;-5.98;64.02
70909;BME280;58554;52.006;5.926;2024-01-11T01:17:03;102447.50;;;-5.99;63.91
70909;BME280;58554;52.006;5.926;2024-01-11T01:19:29;102444.06;;;-6.00;63.88
70909;BME280;58554;52.006;5.926;2024-01-11T01:21:56;102438.84;;;-6.01;64.07
70909;BME280;58554;52.006;5.926;2024-01-11T01:24:22;102443.13;;;-6.02;63.93
70909;BME280;58554;52.006;5.926;2024-01-11T01:26:51;102443.00;;;-6.05;64.09
70909;BME280;58554;52.006;5.926;2024-01-11T01:29:18;102443.81;;;-6.06;64.07
70909;BME280;58554;52.006;5.926;2024-01-11T01:31:44;102451.47;;;-6.07;64.16
70909;BME280;58554;52.006;5.926;2024-01-11T01:34:11;102454.84;;;-6.09;64.34
70909;BME280;58554;52.006;5.926;2024-01-11T01:36:37;102451.47;;;-6.07;64.40
70909;BME280;58554;52.006;5.926;2024-01-11T01:39:04;102454.06;;;-6.07;64.36
70909;BME280;58554;52.006;5.926;2024-01-11T01:41:30;102453.22;;;-6.06;64.34
70909;BME280;58554;52.006;5.926;2024-01-11T01:44:02;102450.53;;;-6.10;64.43
70909;BME280;58554;52.006;5.926;2024-01-11T01:46:29;102444.47;;;-6.12;64.35
70909;BME280;58554;52.006;5.926;2024-01-11T01:48:57;102458.97;;;-6.14;64.43
70909;BME280;58554;52.006;5.926;2024-01-11T01:51:26;102467.50;;;-6.15;64.42
70909;BME280;58554;52.006;5.926;2024-01-11T01:53:56;102464.88;;;-6.16;64.53
70909;BME280;58554;52.006;5.926;2024-01-11T01:56:24;102456.09;;;-6.21;64.55
70909;BME280;58554;52.006;5.926;2024-01-11T01:58:53;102456.94;;;-6.22;64.90
70909;BME280;58554;52.006;5.926;2024-01-11T02:01:23;102466.31;;;-6.23;64.68
70909;BME280;58554;52.006;5.926;2024-01-11T02:03:51;102460.19;;;-6.26;64.82
70909;BME280;58554;52.006;5.926;2024-01-11T02:06:22;102454.97;;;-6.28;64.94
70909;BME280;58554;52.006;5.926;2024-01-11T02:08:52;102466.84;;;-6.32;64.90
70909;BME280;58554;52.006;5.926;2024-01-11T02:11:20;102466.81;;;-6.33;64.94
70909;BME280;58554;52.006;5.926;2024-01-11T02:13:47;102473.63;;;-6.34;65.05
70909;BME280;58554;52.006;5.926;2024-01-11T02:16:15;102470.88;;;-6.38;64.99
70909;BME280;58554;52.006;5.926;2024-01-11T02:18:44;102469.00;;;-6.42;65.09
70909;BME280;58554;52.006;5.926;2024-01-11T02:21:14;102462.91;;;-6.44;65.16
70909;BME280;58554;52.006;5.926;2024-01-11T02:23:43;102462.84;;;-6.46;65.26
70909;BME280;58554;52.006;5.926;2024-01-11T02:26:15;102467.13;;;-6.46;65.24
70909;BME280;58554;52.006;5.926;2024-01-11T02:28:45;102474.84;;;-6.46;65.39
70909;BME280;58554;52.006;5.926;2024-01-11T02:31:13;102477.31;;;-6.50;65.39
70909;BME280;58554;52.006;5.926;2024-01-11T02:33:40;102469.50;;;-6.51;65.61
70909;BME280;58554;52.006;5.926;2024-01-11T02:36:08;102470.28;;;-6.54;65.67
70909;BME280;58554;52.006;5.926;2024-01-11T02:38:35;102467.56;;;-6.57;65.67
70909;BME280;58554;52.006;5.926;2024-01-11T02:41:03;102467.47;;;-6.60;65.79
70909;BME280;58554;52.006;5.926;2024-01-11T02:43:34;102461.47;;;-6.59;65.81
70909;BME280;58554;52.006;5.926;2024-01-11T02:46:00;102460.59;;;-6.59;66.01
70909;BME280;58554;52.006;5.926;2024-01-11T02:48:27;102457.16;;;-6.60;65.96
70909;BME280;58554;52.006;5.926;2024-01-11T02:50:54;102452.88;;;-6.59;66.08
70909;BME280;58554;52.006;5.926;2024-01-11T02:53:21;102446.09;;;-6.57;66.21
70909;BME280;58554;52.006;5.926;2024-01-11T02:55:48;102448.63;;;-6.59;66.17
70909;BME280;58554;52.006;5.926;2024-01-11T02:58:14;102446.09;;;-6.57;66.11
70909;BME280;58554;52.006;5.926;2024-01-11T03:00:43;102439.34;;;-6.55;66.23
70909;BME280;58554;52.006;5.926;2024-01-11T03:03:10;102451.38;;;-6.54;66.23
70909;BME280;58554;52.006;5.926;2024-01-11T03:05:36;102443.66;;;-6.54;66.42
70909;BME280;58554;52.006;5.926;2024-01-11T03:08:03;102444.53;;;-6.54;66.23
70909;BME280;58554;52.006;5.926;2024-01-11T03:10:30;102450.56;;;-6.53;66.25
70909;BME280;58554;52.006;5.926;2024-01-11T03:12:57;102448.94;;;-6.51;66.39
70909;BME280;58554;52.006;5.926;2024-01-11T03:15:24;102453.13;;;-6.53;66.39
70909;BME280;58554;52.006;5.926;2024-01-11T03:17:53;102456.41;;;-6.57;66.45
70909;BME280;58554;52.006;5.926;2024-01-11T03:20:20;102464.13;;;-6.57;66.36
70909;BME280;58554;52.006;5.926;2024-01-11T03:22:46;102460.59;;;-6.59;66.45
70909;BME280;58554;52.006;5.926;2024-01-11T03:25:13;102473.41;;;-6.61;66.43
70909;BME280;58554;52.006;5.926;2024-01-11T03:27:39;102475.03;;;-6.63;66.47
70909;BME280;58554;52.006;5.926;2024-01-11T03:30:07;102479.06;;;-6.70;66.51
70909;BME280;58554;52.006;5.926;2024-01-11T03:32:34;102474.66;;;-6.72;66.79
70909;BME280;58554;52.006;5.926;2024-01-11T03:35:03;102477.94;;;-6.76;66.78
70909;BME280;58554;52.006;5.926;2024-01-11T03:37:30;102471.00;;;-6.77;66.86
70909;BME280;58554;52.006;5.926;2024-01-11T03:39:57;102474.47;;;-6.77;66.92
70909;BME280;58554;52.006;5.926;2024-01-11T03:42:23;102471.00;;;-6.77;67.07
70909;BME280;58554;52.006;5.926;2024-01-11T03:44:49;102469.34;;;-6.77;67.13
70909;BME280;58554;52.006;5.926;2024-01-11T03:47:16;102470.13;;;-6.78;67.00
70909;BME280;58554;52.006;5.926;2024-01-11T03:49:42;102463.28;;;-6.77;67.15
70909;BME280;58554;52.006;5.926;2024-01-11T03:52:11;102451.34;;;-6.77;67.07
70909;BME280;58554;52.006;5.926;2024-01-11T03:54:38;102453.16;;;-6.74;67.28
70909;BME280;58554;52.006;5.926;2024-01-11T03:57:05;102457.44;;;-6.75;67.18
70909;BME280;58554;52.006;5.926;2024-01-11T03:59:31;102474.53;;;-6.75;67.33
70909;BME280;58554;52.006;5.926;2024-01-11T04:01:59;102472.78;;;-6.76;67.17
70909;BME280;58554;52.006;5.926;2024-01-11T04:04:26;102487.28;;;-6.78;67.33
70909;BME280;58554;52.006;5.926;2024-01-11T04:06:52;102487.19;;;-6.80;67.38
70909;BME280;58554;52.006;5.926;2024-01-11T04:09:22;102484.53;;;-6.83;67.45
70909;BME280;58554;52.006;5.926;2024-01-11T04:11:48;102484.44;;;-6.84;67.35
70909;BME280;58554;52.006;5.926;2024-01-11T04:14:15;102488.66;;;-6.86;67.55
70909;BME280;58554;52.006;5.926;2024-01-11T04:16:41;102496.22;;;-6.90;67.53
70909;BME280;58554;52.006;5.926;2024-01-11T04:19:08;102491.75;;;-6.95;67.72
70909;BME280;58554;52.006;5.926;2024-01-11T04:21:35;102485.75;;;-6.96;67.61
70909;BME280;58554;52.006;5.926;2024-01-11T04:24:02;102500.22;;;-6.98;67.73
70909;BME280;58554;52.006;5.926;2024-01-11T04:26:32;102507.09;;;-6.97;67.92
70909;BME280;58554;52.006;5.926;2024-01-11T04:28:58;102505.28;;;-6.99;67.88
70909;BME280;58554;52.006;5.926;2024-01-11T04:31:25;102505.28;;;-6.99;67.97
70909;BME280;58554;52.006;5.926;2024-01-11T04:33:52;102507.19;;;-6.95;67.85
70909;BME280;58554;52.006;5.926;2024-01-11T04:36:18;102506.31;;;-6.96;68.02
70909;BME280;58554;52.006;5.926;2024-01-11T04:38:45;102513.06;;;-6.98;67.83
70909;BME280;58554;52.006;5.926;2024-01-11T04:41:13;102517.31;;;-6.98;68.03
70909;BME280;58554;52.006;5.926;2024-01-11T04:43:44;102519.00;;;-6.99;68.09
70909;BME280;58554;52.006;5.926;2024-01-11T04:46:15;102516.31;;;-7.02;68.09
70909;BME280;58554;52.006;5.926;2024-01-11T04:48:42;102512.84;;;-7.02;68.11
70909;BME280;58554;52.006;5.926;2024-01-11T04:51:08;102516.09;;;-7.06;68.19
70909;BME280;58554;52.006;5.926;2024-01-11T04:53:36;102509.28;;;-7.06;68.37
70909;BME280;58554;52.006;5.926;2024-01-11T04:56:04;102506.72;;;-7.06;68.36
70909;BME280;58554;52.006;5.926;2024-01-11T04:58:31;102510.25;;;-7.04;68.50
70909;BME280;58554;52.006;5.926;2024-01-11T05:01:00;102512.81;;;-7.04;68.42
70909;BME280;58554;52.006;5.926;2024-01-11T05:03:28;102517.13;;;-7.03;68.56
70909;BME280;58554;52.006;5.926;2024-01-11T05:05:54;102508.53;;;-7.03;68.44
70909;BME280;58554;52.006;5.926;2024-01-11T05:08:21;102519.63;;;-7.04;68.57
70909;BME280;58554;52.006;5.926;2024-01-11T05:10:47;102518.75;;;-7.05;68.73
70909;BME280;58554;52.006;5.926;2024-01-11T05:13:14;102516.19;;;-7.05;68.64
70909;BME280;58554;52.006;5.926;2024-01-11T05:15:41;102515.31;;;-7.05;68.74
70909;BME280;58554;52.006;5.926;2024-01-11T05:18:10;102519.56;;;-7.06;68.84
70909;BME280;58554;52.006;5.926;2024-01-11T05:20:36;102519.44;;;-7.09;68.94
70909;BME280;58554;52.006;5.926;2024-01-11T05:23:03;102515.91;;;-7.11;68.96
70909;BME280;58554;52.006;5.926;2024-01-11T05:25:30;102514.16;;;-7.12;69.07
70909;BME280;58554;52.006;5.926;2024-01-11T05:27:57;102518.47;;;-7.11;69.13
70909;BME280;58554;52.006;5.926;2024-01-11T05:30:23;102515.91;;;-7.11;69.26
70909;BME280;58554;52.006;5.926;2024-01-11T05:32:50;102497.84;;;-7.13;69.11
70909;BME280;58554;52.006;5.926;2024-01-11T05:35:19;102474.72;;;-7.13;69.25
70909;BME280;58554;52.006;5.926;2024-01-11T05:37:45;102481.69;;;-7.10;69.41
70909;BME280;58554;52.006;5.926;2024-01-11T05:40:12;102490.28;;;-7.09;69.50
70909;BME280;58554;52.006;5.926;2024-01-11T05:42:39;102508.28;;;-7.09;69.37
70909;BME280;58554;52.006;5.926;2024-01-11T05:45:06;102507.41;;;-7.10;69.50
70909;BME280;58554;52.006;5.926;2024-01-11T05:47:33;102488.59;;;-7.09;69.28
70909;BME280;58554;52.006;5.926;2024-01-11T05:49:59;102489.44;;;-7.08;69.50
70909;BME280;58554;52.006;5.926;2024-01-11T05:52:28;102497.22;;;-7.07;69.51
70909;BME280;58554;52.006;5.926;2024-01-11T05:54:55;102499.81;;;-7.07;69.52
70909;BME280;58554;52.006;5.926;2024-01-11T05:57:21;102499.81;;;-7.07;69.56
70909;BME280;58554;52.006;5.926;2024-01-11T05:59:48;102503.25;;;-7.06;69.44
70909;BME280;58554;52.006;5.926;2024-01-11T06:02:14;102505.13;;;-7.02;69.62
70909;BME280;58554;52.006;5.926;2024-01-11T06:04:41;102507.78;;;-7.01;69.34
70909;BME280;58554;52.006;5.926;2024-01-11T06:07:07;102510.28;;;-7.02;69.58
70909;BME280;58554;52.006;5.926;2024-01-11T06:09:36;102510.25;;;-7.04;69.58
70909;BME280;58554;52.006;5.926;2024-01-11T06:12:03;102505.91;;;-7.05;69.63
70909;BME280;58554;52.006;5.926;2024-01-11T06:14:30;102515.31;;;-7.05;69.62
70909;BME280;58554;52.006;5.926;2024-01-11T06:16:56;102535.94;;;-7.04;69.75
70909;BME280;58554;52.006;5.926;2024-01-11T06:19:23;102547.84;;;-7.06;69.72
70909;BME280;58554;52.006;5.926;2024-01-11T06:21:49;102580.38;;;-7.06;69.64
70909;BME280;58554;52.006;5.926;2024-01-11T06:24:16;102576.06;;;-7.07;69.76
70909;BME280;58554;52.006;5.926;2024-01-11T06:26:45;102583.78;;;-7.07;69.73
70909;BME280;58554;52.006;5.926;2024-01-11T06:29:11;102577.59;;;-7.11;69.82
70909;BME280;58554;52.006;5.926;2024-01-11T06:31:38;102577.69;;;-7.09;69.87
70909;BME280;58554;52.006;5.926;2024-01-11T06:34:04;102569.03;;;-7.12;69.86
70909;BME280;58554;52.006;5.926;2024-01-11T06:36:31;102580.09;;;-7.13;69.73
70909;BME280;58554;52.006;5.926;2024-01-11T06:38:57;102572.34;;;-7.14;69.96
70909;BME280;58554;52.006;5.926;2024-01-11T06:41:24;102574.91;;;-7.14;69.90
70909;BME280;58554;52.006;5.926;2024-01-11T06:43:53;102582.63;;;-7.14;69.91
70909;BME280;58554;52.006;5.926;2024-01-11T06:46:20;102575.72;;;-7.15;69.96
70909;BME280;58554;52.006;5.926;2024-01-11T06:48:47;102580.72;;;-7.18;70.02
70909;BME280;58554;52.006;5.926;2024-01-11T06:51:14;102580.66;;;-7.20;69.98
70909;BME280;58554;52.006;5.926;2024-01-11T06:53:41;102591.72;;;-7.21;69.90
70909;BME280;58554;52.006;5.926;2024-01-11T06:56:14;102592.47;;;-7.23;70.22
70909;BME280;58554;52.006;5.926;2024-01-11T06:58:40;102597.56;;;-7.25;70.32
70909;BME280;58554;52.006;5.926;2024-01-11T07:01:10;102593.22;;;-7.26;70.34
70909;BME280;58554;52.006;5.926;2024-01-11T07:03:37;102589.88;;;-7.25;70.19
70909;BME280;58554;52.006;5.926;2024-01-11T07:06:05;102596.81;;;-7.22;70.37
70909;BME280;58554;52.006;5.926;2024-01-11T07:08:32;102598.50;;;-7.23;70.19
70909;BME280;58554;52.006;5.926;2024-01-11T07:11:00;102598.50;;;-7.23;70.44
70909;BME280;58554;52.006;5.926;2024-01-11T07:13:26;102591.59;;;-7.24;70.32
70909;BME280;58554;52.006;5.926;2024-01-11T07:15:53;102587.34;;;-7.23;70.59
70909;BME280;58554;52.006;5.926;2024-01-11T07:18:22;102587.34;;;-7.23;70.53
70909;BME280;58554;52.006;5.926;2024-01-11T07:20:48;102580.56;;;-7.21;70.52
70909;BME280;58554;52.006;5.926;2024-01-11T07:23:15;102572.94;;;-7.20;70.63
70909;BME280;58554;52.006;5.926;2024-01-11T07:25:42;102567.88;;;-7.18;70.49
70909;BME280;58554;52.006;5.926;2024-01-11T07:28:09;102552.50;;;-7.17;70.60
70909;BME280;58554;52.006;5.926;2024-01-11T07:30:36;102561.22;;;-7.13;70.58
70909;BME280;58554;52.006;5.926;2024-01-11T07:33:03;102556.16;;;-7.12;70.54
70909;BME280;58554;52.006;5.926;2024-01-11T07:35:32;102563.22;;;-7.07;70.56
70909;BME280;58554;52.006;5.926;2024-01-11T07:37:59;102576.94;;;-7.07;70.52
70909;BME280;58554;52.006;5.926;2024-01-11T07:40:25;102576.19;;;-7.04;70.62
70909;BME280;58554;52.006;5.926;2024-01-11T07:42:52;102578.81;;;-7.03;70.50
70909;BME280;58554;52.006;5.926;2024-01-11T07:45:18;102575.50;;;-7.00;70.52
70909;BME280;58554;52.006;5.926;2024-01-11T07:47:45;102580.81;;;-6.97;70.46
70909;BME280;58554;52.006;5.926;2024-01-11T07:50:12;102574.78;;;-6.98;70.53
70909;BME280;58554;52.006;5.926;2024-01-11T07:52:41;102555.97;;;-6.97;70.44
70909;BME280;58554;52.006;5.926;2024-01-11T07:55:09;102558.53;;;-6.97;70.32
70909;BME280;58554;52.006;5.926;2024-01-11T07:57:36;102555.97;;;-6.97;70.47
70909;BME280;58554;52.006;5.926;2024-01-11T08:00:04;102563.66;;;-6.97;70.43
70909;BME280;58554;52.006;5.926;2024-01-11T08:02:32;102557.72;;;-6.96;70.50
70909;BME280;58554;52.006;5.926;2024-01-11T08:04:59;102563.84;;;-6.92;70.46
70909;BME280;58554;52.006;5.926;2024-01-11T08:07:25;102564.78;;;-6.90;70.54
70909;BME280;58554;52.006;5.926;2024-01-11T08:09:54;102578.66;;;-6.86;70.47
70909;BME280;58554;52.006;5.926;2024-01-11T08:12:21;102583.03;;;-6.84;70.32
70909;BME280;58554;52.006;5.926;2024-01-11T08:14:48;102574.53;;;-6.83;70.45
70909;BME280;58554;52.006;5.926;2024-01-11T08:17:15;102575.34;;;-6.84;70.37
70909;BME280;58554;52.006;5.926;2024-01-11T08:19:41;102571.97;;;-6.83;70.32
70909;BME280;58554;52.006;5.926;2024-01-11T08:22:09;102584.06;;;-6.80;70.39
70909;BME280;58554;52.006;5.926;2024-01-11T08:24:36;102579.72;;;-6.81;70.59
70909;BME280;58554;52.006;5.926;2024-01-11T08:27:05;102591.72;;;-6.82;70.45
70909;BME280;58554;52.006;5.926;2024-01-11T08:29:32;102581.34;;;-6.83;70.54
70909;BME280;58554;52.006;5.926;2024-01-11T08:31:59;102583.13;;;-6.82;70.66
70909;BME280;58554;52.006;5.926;2024-01-11T08:34:25;102592.72;;;-6.78;70.50
70909;BME280;58554;52.006;5.926;2024-01-11T08:36:52;102595.31;;;-6.78;70.50
70909;BME280;58554;52.006;5.926;2024-01-11T08:39:19;102606.53;;;-6.76;70.57
70909;BME280;58554;52.006;5.926;2024-01-11T08:41:45;102593.69;;;-6.76;70.61
70909;BME280;58554;52.006;5.926;2024-01-11T08:44:14;102604.09;;;-6.73;70.54
70909;BME280;58554;52.006;5.926;2024-01-11T08:46:41;102607.69;;;-6.70;70.53
70909;BME280;58554;52.006;5.926;2024-01-11T08:49:07;102608.69;;;-6.66;70.56
70909;BME280;58554;52.006;5.926;2024-01-11T08:51:34;102600.28;;;-6.62;70.57
70909;BME280;58554;52.006;5.926;2024-01-11T08:54:00;102604.75;;;-6.58;70.49
70909;BME280;58554;52.006;5.926;2024-01-11T08:56:27;102604.06;;;-6.54;70.54
70909;BME280;58554;52.006;5.926;2024-01-11T08:58:53;102617.13;;;-6.49;70.52
70909;BME280;58554;52.006;5.926;2024-01-11T09:01:23;102623.31;;;-6.45;70.46
70909;BME280;58554;52.006;5.926;2024-01-11T09:03:49;102624.34;;;-6.40;70.55
70909;BME280;58554;52.006;5.926;2024-01-11T09:06:15;102626.31;;;-6.35;70.58
70909;BME280;58554;52.006;5.926;2024-01-11T09:08:42;102632.53;;;-6.30;70.37
70909;BME280;58554;52.006;5.926;2024-01-11T09:11:08;102631.91;;;-6.24;70.54
70909;BME280;58554;52.006;5.926;2024-01-11T09:13:35;102628.72;;;-6.18;70.48
70909;BME280;58554;52.006;5.926;2024-01-11T09:16:02;102640.16;;;-6.12;70.38
70909;BME280;58554;52.006;5.926;2024-01-11T09:18:32;102643.84;;;-6.05;70.48
70909;BME280;58554;52.006;5.926;2024-01-11T09:20:58;102634.56;;;-6.01;70.36
70909;BME280;58554;52.006;5.926;2024-01-11T09:23:25;102648.50;;;-5.96;70.37
70909;BME280;58554;52.006;5.926;2024-01-11T09:25:51;102643.53;;;-5.92;70.17
70909;BME280;58554;52.006;5.926;2024-01-11T09:28:18;102648.94;;;-5.85;70.37
70909;BME280;58554;52.006;5.926;2024-01-11T09:30:44;102649.13;;;-5.81;70.55
70909;BME280;58554;52.006;5.926;2024-01-11T09:33:11;102648.56;;;-5.74;70.46
70909;BME280;58554;52.006;5.926;2024-01-11T09:35:40;102651.38;;;-5.68;70.46
70909;BME280;58554;52.006;5.926;2024-01-11T09:38:07;102658.41;;;-5.63;70.85
70909;BME280;58554;52.006;5.926;2024-01-11T09:40:33;102654.31;;;-5.58;70.60
70909;BME280;58554;52.006;5.926;2024-01-11T09:43:01;102655.44;;;-5.52;70.56
70909;BME280;58554;52.006;5.926;2024-01-11T09:45:30;102658.19;;;-5.47;70.58
70909;BME280;58554;52.006;5.926;2024-01-11T09:47:57;102656.66;;;-5.42;70.61
70909;BME280;58554;52.006;5.926;2024-01-11T09:50:25;102668.06;;;-5.37;70.86
70909;BME280;58554;52.006;5.926;2024-01-11T09:52:54;102667.34;;;-5.33;70.44
70909;BME280;58554;52.006;5.926;2024-01-11T09:55:20;102671.88;;;-5.27;70.72
70909;BME280;58554;52.006;5.926;2024-01-11T09:57:48;102681.53;;;-5.21;70.60
70909;BME280;58554;52.006;5.926;2024-01-11T10:00:18;102686.91;;;-5.15;70.71
70909;BME280;58554;52.006;5.926;2024-01-11T10:02:48;102682.88;;;-5.09;70.66
70909;BME280;58554;52.006;5.926;2024-01-11T10:05:15;102681.34;;;-5.03;70.57
70909;BME280;58554;52.006;5.926;2024-01-11T10:07:43;102680.75;;;-4.96;70.74
70909;BME280;58554;52.006;5.926;2024-01-11T10:10:13;102684.44;;;-4.90;70.69
70909;BME280;58554;52.006;5.926;2024-01-11T10:12:39;102678.56;;;-4.86;70.71
70909;BME280;58554;52.006;5.926;2024-01-11T10:15:08;102688.25;;;-4.80;70.90
70909;BME280;58554;52.006;5.926;2024-01-11T10:17:35;102688.41;;;-4.75;70.91
70909;BME280;58554;52.006;5.926;2024-01-11T10:20:03;102679.94;;;-4.71;71.06
70909;BME280;58554;52.006;5.926;2024-01-11T10:22:30;102703.38;;;-4.67;71.02
70909;BME280;58554;52.006;5.926;2024-01-11T10:25:09;102701.81;;;-4.61;71.02
70909;BME280;58554;52.006;5.926;2024-01-11T10:27:39;102687.34;;;-4.58;71.29
70909;BME280;58554;52.006;5.926;2024-01-11T10:30:07;102694.47;;;-4.51;71.87
70909;BME280;58554;52.006;5.926;2024-01-11T10:32:35;102688.75;;;-4.42;71.94
70909;BME280;58554;52.006;5.926;2024-01-11T10:35:01;102684.00;;;-4.30;72.33
70909;BME280;58554;52.006;5.926;2024-01-11T10:37:30;102686.09;;;-4.19;72.83
70909;BME280;58554;52.006;5.926;2024-01-11T10:39:57;102682.06;;;-4.11;72.93
70909;BME280;58554;52.006;5.926;2024-01-11T10:42:31;102681.50;;;-4.02;73.09
70909;BME280;58554;52.006;5.926;2024-01-11T10:45:03;102686.06;;;-3.95;73.00
70909;BME280;58554;52.006;5.926;2024-01-11T10:47:38;102670.84;;;-3.86;73.32
70909;BME280;58554;52.006;5.926;2024-01-11T10:50:10;102676.34;;;-3.77;73.42
70909;BME280;58554;52.006;5.926;2024-01-11T10:52:43;102694.78;;;-3.66;73.38
70909;BME280;58554;52.006;5.926;2024-01-11T10:55:21;102694.97;;;-3.60;73.56
70909;BME280;58554;52.006;5.926;2024-01-11T10:57:49;102684.78;;;-3.55;73.74
70909;BME280;58554;52.006;5.926;2024-01-11T11:00:20;102690.13;;;-3.49;74.04
70909;BME280;58554;52.006;5.926;2024-01-11T11:02:47;102709.31;;;-3.42;74.33
70909;BME280;58554;52.006;5.926;2024-01-11T11:05:18;102715.66;;;-3.33;74.28
70909;BME280;58554;52.006;5.926;2024-01-11T11:07:48;102709.84;;;-3.26;74.06
70909;BME280;58554;52.006;5.926;2024-01-11T11:10:15;102712.59;;;-3.19;74.29
70909;BME280;58554;52.006;5.926;2024-01-11T11:12:45;102715.34;;;-3.15;74.27
70909;BME280;58554;52.006;5.926;2024-01-11T11:15:12;102713.78;;;-3.10;74.13
70909;BME280;58554;52.006;5.926;2024-01-11T11:17:42;102711.31;;;-3.05;74.13
70909;BME280;58554;52.006;5.926;2024-01-11T11:20:11;102708.00;;;-3.01;74.11
70909;BME280;58554;52.006;5.926;2024-01-11T11:22:40;102704.75;;;-2.94;74.35
70909;BME280;58554;52.006;5.926;2024-01-11T11:25:08;102694.56;;;-2.88;74.34
70909;BME280;58554;52.006;5.926;2024-01-11T11:27:36;102686.06;;;-2.84;74.63
70909;BME280;58554;52.006;5.926;2024-01-11T11:30:04;102679.31;;;-2.78;74.49
70909;BME280;58554;52.006;5.926;2024-01-11T11:32:42;102676.13;;;-2.70;74.35
70909;BME280;58554;52.006;5.926;2024-01-11T11:35:09;102677.22;;;-2.61;74.55
70909;BME280;58554;52.006;5.926;2024-01-11T11:37:36;102676.53;;;-2.54;74.50
70909;BME280;58554;52.006;5.926;2024-01-11T11:40:04;102679.28;;;-2.50;74.40
70909;BME280;58554;52.006;5.926;2024-01-11T11:42:34;102681.09;;;-2.46;74.50
70909;BME280;58554;52.006;5.926;2024-01-11T11:45:00;102676.00;;;-2.43;74.59
70909;BME280;58554;52.006;5.926;2024-01-11T11:47:33;102675.28;;;-2.37;74.60
70909;BME280;58554;52.006;5.926;2024-01-11T11:50:07;102675.41;;;-2.32;74.72
70909;BME280;58554;52.006;5.926;2024-01-11T11:52:36;102669.53;;;-2.27;74.57
70909;BME280;58554;52.006;5.926;2024-01-11T11:55:06;102664.50;;;-2.20;74.46
70909;BME280;58554;52.006;5.926;2024-01-11T11:57:35;102664.66;;;-2.14;74.52
70909;BME280;58554;52.006;5.926;2024-01-11T12:00:03;102665.69;;;-2.08;74.68
70909;BME280;58554;52.006;5.926;2024-01-11T12:02:32;102657.16;;;-2.04;74.67
70909;BME280;58554;52.006;5.926;2024-01-11T12:04:59;102648.69;;;-1.96;74.75
70909;BME280;58554;52.006;5.926;2024-01-11T12:07:28;102645.38;;;-1.91;74.84
70909;BME280;58554;52.006;5.926;2024-01-11T12:09:55;102637.75;;;-1.85;74.71
70909;BME280;58554;52.006;5.926;2024-01-11T12:12:22;102643.88;;;-1.81;74.58
70909;BME280;58554;52.006;5.926;2024-01-11T12:14:49;102637.94;;;-1.75;74.40
70909;BME280;58554;52.006;5.926;2024-01-11T12:17:15;102639.78;;;-1.73;74.69
70909;BME280;58554;52.006;5.926;2024-01-11T12:19:42;102645.88;;;-1.71;74.65
70909;BME280;58554;52.006;5.926;2024-01-11T12:22:09;102645.88;;;-1.69;74.83
70909;BME280;58554;52.006;5.926;2024-01-11T12:24:39;102635.56;;;-1.68;74.88
70909;BME280;58554;52.006;5.926;2024-01-11T12:27:05;102633.06;;;-1.63;74.95
70909;BME280;58554;52.006;5.926;2024-01-11T12:29:32;102630.56;;;-1.58;75.01
70909;BME280;58554;52.006;5.926;2024-01-11T12:31:59;102643.63;;;-1.55;74.89
70909;BME280;58554;52.006;5.926;2024-01-11T12:34:28;102637.63;;;-1.53;74.96
70909;BME280;58554;52.006;5.926;2024-01-11T12:36:55;102639.47;;;-1.47;74.85
70909;BME280;58554;52.006;5.926;2024-01-11T12:39:24;102642.19;;;-1.43;74.83
70909;BME280;58554;52.006;5.926;2024-01-11T12:41:54;102633.63;;;-1.38;74.68
70909;BME280;58554;52.006;5.926;2024-01-11T12:44:21;102632.75;;;-1.39;74.80
70909;BME280;58554;52.006;5.926;2024-01-11T12:46:47;102633.69;;;-1.35;74.82
70909;BME280;58554;52.006;5.926;2024-01-11T12:49:14;102618.13;;;-1.35;74.93
70909;BME280;58554;52.006;5.926;2024-01-11T12:51:41;102622.50;;;-1.33;75.07